sensor_id;sensor_type;location;lat;lon;timestamp;P1;durP1;ratioP1;P2;durP2;ratioP2
29908;SDS011;36247;51.952;6.146;2023-03-30T00:02:20;7.85;;;4.53;;
29908;SDS011;36247;51.952;6.146;2023-03-30T00:04:48;7.82;;;4.05;;
29908;SDS011;36247;51.952;6.146;2023-03-30T00:07:14;8.88;;;4.82;;
29908;SDS011;36247;51.952;6.146;2023-03-30T00:09:40;9.43;;;4.40;;
29908;SDS011;36247;51.952;6.146;2023-03-30T00:12:09;9.60;;;4.32;;
29908;SDS011;36247;51.952;6.146;2023-03-30T00:14:35;9.35;;;4.70;;
29908;SDS011;36247;51.952;6.146;2023-03-30T00:17:04;10.45;;;4.25;;
29908;SDS011;36247;51.952;6.146;2023-03-30T00:19:31;11.52;;;5.10;;
29908;SDS011;36247;51.952;6.146;2023-03-30T00:21:56;9.07;;;4.57;;
29908;SDS011;36247;51.952;6.146;2023-03-30T00:24:22;10.60;;;4.90;;
29908;SDS011;36247;51.952;6.146;2023-03-30T00:26:48;10.90;;;4.22;;
29908;SDS011;36247;51.952;6.146;2023-03-30T00:29:13;10.38;;;4.97;;
29908;SDS011;36247;51.952;6.146;2023-03-30T00:31:40;16.02;;;4.97;;
29908;SDS011;36247;51.952;6.146;2023-03-30T00:34:06;9.00;;;4.60;;
29908;SDS011;36247;51.952;6.146;2023-03-30T00:36:31;10.60;;;4.10;;
29908;SDS011;36247;51.952;6.146;2023-03-30T00:39:01;12.68;;;4.68;;
29908;SDS011;36247;51.952;6.146;2023-03-30T00:41:31;12.93;;;4.72;;
29908;SDS011;36247;51.952;6.146;2023-03-30T00:44:01;11.93;;;5.80;;
29908;SDS011;36247;51.952;6.146;2023-03-30T00:46:47;8.77;;;4.25;;
29908;SDS011;36247;51.952;6.146;2023-03-30T00:49:13;9.80;;;4.88;;
29908;SDS011;36247;51.952;6.146;2023-03-30T00:51:39;9.50;;;4.53;;
29908;SDS011;36247;51.952;6.146;2023-03-30T00:54:09;8.90;;;4.50;;
29908;SDS011;36247;51.952;6.146;2023-03-30T00:56:38;9.50;;;4.40;;
29908;SDS011;36247;51.952;6.146;2023-03-30T00:59:03;11.13;;;5.20;;
29908;SDS011;36247;51.952;6.146;2023-03-30T01:01:29;7.90;;;4.32;;
29908;SDS011;36247;51.952;6.146;2023-03-30T01:04:00;13.38;;;4.28;;
29908;SDS011;36247;51.952;6.146;2023-03-30T01:06:28;7.03;;;4.15;;
29908;SDS011;36247;51.952;6.146;2023-03-30T01:08:56;7.50;;;4.65;;
29908;SDS011;36247;51.952;6.146;2023-03-30T01:11:24;9.18;;;4.60;;
29908;SDS011;36247;51.952;6.146;2023-03-30T01:13:58;7.90;;;4.35;;
29908;SDS011;36247;51.952;6.146;2023-03-30T01:16:42;9.00;;;4.65;;
29908;SDS011;36247;51.952;6.146;2023-03-30T01:19:46;8.20;;;4.80;;
29908;SDS011;36247;51.952;6.146;2023-03-30T01:30:51;9.73;;;4.32;;
29908;SDS011;36247;51.952;6.146;2023-03-30T01:39:28;8.07;;;5.18;;
29908;SDS011;36247;51.952;6.146;2023-03-30T01:42:36;10.45;;;4.70;;
29908;SDS011;36247;51.952;6.146;2023-03-30T01:47:52;7.68;;;4.25;;
29908;SDS011;36247;51.952;6.146;2023-03-30T01:50:42;6.75;;;3.90;;
29908;SDS011;36247;51.952;6.146;2023-03-30T01:56:03;8.93;;;3.80;;
29908;SDS011;36247;51.952;6.146;2023-03-30T02:01:24;5.47;;;3.83;;
29908;SDS011;36247;51.952;6.146;2023-03-30T02:03:53;12.15;;;3.80;;
29908;SDS011;36247;51.952;6.146;2023-03-30T02:06:26;10.23;;;4.20;;
29908;SDS011;36247;51.952;6.146;2023-03-30T02:09:03;7.75;;;4.30;;
29908;SDS011;36247;51.952;6.146;2023-03-30T02:11:31;9.48;;;3.88;;
29908;SDS011;36247;51.952;6.146;2023-03-30T02:13:58;10.73;;;3.70;;
29908;SDS011;36247;51.952;6.146;2023-03-30T02:16:36;6.55;;;4.47;;
29908;SDS011;36247;51.952;6.146;2023-03-30T02:19:10;5.93;;;4.47;;
29908;SDS011;36247;51.952;6.146;2023-03-30T02:21:35;10.80;;;4.13;;
29908;SDS011;36247;51.952;6.146;2023-03-30T02:24:02;11.35;;;4.60;;
29908;SDS011;36247;51.952;6.146;2023-03-30T02:26:31;6.95;;;3.67;;
29908;SDS011;36247;51.952;6.146;2023-03-30T02:28:58;8.98;;;4.10;;
29908;SDS011;36247;51.952;6.146;2023-03-30T02:31:26;6.88;;;3.72;;
29908;SDS011;36247;51.952;6.146;2023-03-30T02:36:58;7.78;;;4.10;;
29908;SDS011;36247;51.952;6.146;2023-03-30T02:42:19;7.68;;;3.38;;
29908;SDS011;36247;51.952;6.146;2023-03-30T02:54:33;6.15;;;3.17;;
29908;SDS011;36247;51.952;6.146;2023-03-30T02:57:45;6.93;;;3.95;;
29908;SDS011;36247;51.952;6.146;2023-03-30T03:00:52;8.05;;;3.60;;
29908;SDS011;36247;51.952;6.146;2023-03-30T03:03:56;10.65;;;3.70;;
29908;SDS011;36247;51.952;6.146;2023-03-30T03:06:27;9.18;;;4.15;;
29908;SDS011;36247;51.952;6.146;2023-03-30T03:08:54;8.73;;;3.95;;
29908;SDS011;36247;51.952;6.146;2023-03-30T03:11:24;8.32;;;3.90;;
29908;SDS011;36247;51.952;6.146;2023-03-30T03:13:50;7.93;;;3.25;;
29908;SDS011;36247;51.952;6.146;2023-03-30T03:16:17;9.70;;;3.00;;
29908;SDS011;36247;51.952;6.146;2023-03-30T03:19:00;7.72;;;2.88;;
29908;SDS011;36247;51.952;6.146;2023-03-30T03:21:27;3.95;;;2.35;;
29908;SDS011;36247;51.952;6.146;2023-03-30T03:23:52;5.15;;;2.88;;
29908;SDS011;36247;51.952;6.146;2023-03-30T03:26:20;7.45;;;2.85;;
29908;SDS011;36247;51.952;6.146;2023-03-30T03:28:46;7.78;;;3.35;;
29908;SDS011;36247;51.952;6.146;2023-03-30T03:31:12;8.65;;;2.78;;
29908;SDS011;36247;51.952;6.146;2023-03-30T03:33:39;6.32;;;2.63;;
29908;SDS011;36247;51.952;6.146;2023-03-30T03:36:19;10.40;;;3.00;;
29908;SDS011;36247;51.952;6.146;2023-03-30T03:38:49;5.90;;;3.47;;
29908;SDS011;36247;51.952;6.146;2023-03-30T03:41:16;6.10;;;3.10;;
29908;SDS011;36247;51.952;6.146;2023-03-30T13:24:53;16.35;;;4.15;;
29908;SDS011;36247;51.952;6.146;2023-03-30T13:40:55;19.73;;;5.00;;
29908;SDS011;36247;51.952;6.146;2023-03-30T13:46:07;16.75;;;4.00;;
29908;SDS011;36247;51.952;6.146;2023-03-30T13:51:13;19.65;;;4.22;;
29908;SDS011;36247;51.952;6.146;2023-03-30T13:53:52;15.70;;;4.22;;
29908;SDS011;36247;51.952;6.146;2023-03-30T13:56:32;19.52;;;5.75;;
29908;SDS011;36247;51.952;6.146;2023-03-30T13:59:05;23.60;;;4.97;;
29908;SDS011;36247;51.952;6.146;2023-03-30T14:01:35;16.42;;;4.55;;
29908;SDS011;36247;51.952;6.146;2023-03-30T14:04:03;18.98;;;4.65;;
29908;SDS011;36247;51.952;6.146;2023-03-30T14:06:30;20.33;;;5.22;;
29908;SDS011;36247;51.952;6.146;2023-03-30T14:14:01;20.25;;;5.50;;
29908;SDS011;36247;51.952;6.146;2023-03-30T14:16:32;17.70;;;4.47;;
29908;SDS011;36247;51.952;6.146;2023-03-30T14:21:31;26.83;;;4.53;;
29908;SDS011;36247;51.952;6.146;2023-03-30T14:23:56;25.75;;;4.90;;
29908;SDS011;36247;51.952;6.146;2023-03-30T14:26:27;18.30;;;3.88;;
29908;SDS011;36247;51.952;6.146;2023-03-30T14:28:57;16.20;;;5.22;;
29908;SDS011;36247;51.952;6.146;2023-03-30T14:31:38;24.65;;;6.00;;
29908;SDS011;36247;51.952;6.146;2023-03-30T14:36:52;19.15;;;4.40;;
29908;SDS011;36247;51.952;6.146;2023-03-30T14:39:20;20.73;;;5.95;;
29908;SDS011;36247;51.952;6.146;2023-03-30T14:41:48;17.27;;;4.20;;
29908;SDS011;36247;51.952;6.146;2023-03-30T14:44:15;16.95;;;4.35;;
29908;SDS011;36247;51.952;6.146;2023-03-30T14:46:46;12.35;;;3.35;;
29908;SDS011;36247;51.952;6.146;2023-03-30T14:49:21;14.18;;;4.55;;
29908;SDS011;36247;51.952;6.146;2023-03-30T14:51:52;20.75;;;4.60;;
29908;SDS011;36247;51.952;6.146;2023-03-30T14:54:24;12.63;;;4.00;;
29908;SDS011;36247;51.952;6.146;2023-03-30T14:56:56;14.50;;;3.53;;
29908;SDS011;36247;51.952;6.146;2023-03-30T14:59:24;14.18;;;4.00;;
29908;SDS011;36247;51.952;6.146;2023-03-30T15:01:51;17.83;;;4.18;;
29908;SDS011;36247;51.952;6.146;2023-03-30T15:04:19;20.80;;;5.25;;
29908;SDS011;36247;51.952;6.146;2023-03-30T15:06:48;12.48;;;3.88;;
29908;SDS011;36247;51.952;6.146;2023-03-30T15:09:16;16.33;;;4.00;;
29908;SDS011;36247;51.952;6.146;2023-03-30T15:11:44;17.05;;;4.60;;
29908;SDS011;36247;51.952;6.146;2023-03-30T15:14:15;11.95;;;3.08;;
29908;SDS011;36247;51.952;6.146;2023-03-30T15:16:45;15.63;;;3.42;;
29908;SDS011;36247;51.952;6.146;2023-03-30T15:19:19;15.80;;;3.78;;
29908;SDS011;36247;51.952;6.146;2023-03-30T15:22:00;16.70;;;4.63;;
29908;SDS011;36247;51.952;6.146;2023-03-30T15:24:32;17.40;;;3.92;;
29908;SDS011;36247;51.952;6.146;2023-03-30T15:27:04;14.32;;;3.75;;
29908;SDS011;36247;51.952;6.146;2023-03-30T15:29:34;17.35;;;4.25;;
29908;SDS011;36247;51.952;6.146;2023-03-30T15:34:55;17.00;;;3.60;;
29908;SDS011;36247;51.952;6.146;2023-03-30T15:37:27;19.95;;;5.18;;
29908;SDS011;36247;51.952;6.146;2023-03-30T15:39:52;14.23;;;4.05;;
29908;SDS011;36247;51.952;6.146;2023-03-30T15:42:25;11.98;;;3.65;;
29908;SDS011;36247;51.952;6.146;2023-03-30T15:45:03;19.30;;;5.40;;
29908;SDS011;36247;51.952;6.146;2023-03-30T15:47:33;18.35;;;3.80;;
29908;SDS011;36247;51.952;6.146;2023-03-30T15:49:59;17.35;;;3.58;;
29908;SDS011;36247;51.952;6.146;2023-03-30T15:52:25;14.77;;;3.88;;
29908;SDS011;36247;51.952;6.146;2023-03-30T15:54:56;18.80;;;4.43;;
29908;SDS011;36247;51.952;6.146;2023-03-30T15:57:29;16.92;;;4.00;;
29908;SDS011;36247;51.952;6.146;2023-03-30T15:59:55;13.63;;;3.40;;
29908;SDS011;36247;51.952;6.146;2023-03-30T16:02:46;15.60;;;3.92;;
29908;SDS011;36247;51.952;6.146;2023-03-30T16:05:22;13.75;;;4.35;;
29908;SDS011;36247;51.952;6.146;2023-03-30T16:07:50;12.07;;;3.72;;
29908;SDS011;36247;51.952;6.146;2023-03-30T16:10:23;14.95;;;3.95;;
29908;SDS011;36247;51.952;6.146;2023-03-30T16:12:52;16.95;;;4.45;;
29908;SDS011;36247;51.952;6.146;2023-03-30T16:15:26;15.88;;;4.75;;
29908;SDS011;36247;51.952;6.146;2023-03-30T16:17:54;17.33;;;3.75;;
29908;SDS011;36247;51.952;6.146;2023-03-30T16:22:45;14.63;;;3.85;;
29908;SDS011;36247;51.952;6.146;2023-03-30T16:25:15;17.35;;;3.60;;
29908;SDS011;36247;51.952;6.146;2023-03-30T16:27:42;14.32;;;4.65;;
29908;SDS011;36247;51.952;6.146;2023-03-30T16:30:18;18.92;;;4.60;;
29908;SDS011;36247;51.952;6.146;2023-03-30T16:32:49;21.73;;;4.43;;
29908;SDS011;36247;51.952;6.146;2023-03-30T16:35:15;14.05;;;3.58;;
29908;SDS011;36247;51.952;6.146;2023-03-30T16:37:40;10.18;;;3.55;;
29908;SDS011;36247;51.952;6.146;2023-03-30T16:40:13;13.30;;;3.40;;
29908;SDS011;36247;51.952;6.146;2023-03-30T16:43:00;11.95;;;4.07;;
29908;SDS011;36247;51.952;6.146;2023-03-30T16:45:26;14.65;;;3.30;;
29908;SDS011;36247;51.952;6.146;2023-03-30T16:47:52;10.15;;;3.05;;
29908;SDS011;36247;51.952;6.146;2023-03-30T16:50:22;15.45;;;4.07;;
29908;SDS011;36247;51.952;6.146;2023-03-30T16:52:51;8.68;;;2.88;;
29908;SDS011;36247;51.952;6.146;2023-03-30T16:55:18;16.65;;;4.60;;
29908;SDS011;36247;51.952;6.146;2023-03-30T16:57:44;14.00;;;3.17;;
29908;SDS011;36247;51.952;6.146;2023-03-30T17:00:16;12.85;;;3.22;;
29908;SDS011;36247;51.952;6.146;2023-03-30T17:02:45;15.20;;;3.95;;
29908;SDS011;36247;51.952;6.146;2023-03-30T17:05:10;15.25;;;4.10;;
29908;SDS011;36247;51.952;6.146;2023-03-30T17:07:36;16.42;;;4.18;;
29908;SDS011;36247;51.952;6.146;2023-03-30T17:10:11;11.57;;;4.00;;
29908;SDS011;36247;51.952;6.146;2023-03-30T17:12:48;15.05;;;4.18;;
29908;SDS011;36247;51.952;6.146;2023-03-30T17:15:15;14.40;;;3.92;;
29908;SDS011;36247;51.952;6.146;2023-03-30T17:17:41;18.88;;;5.13;;
29908;SDS011;36247;51.952;6.146;2023-03-30T17:20:15;14.40;;;4.40;;
29908;SDS011;36247;51.952;6.146;2023-03-30T17:22:43;15.95;;;4.30;;
29908;SDS011;36247;51.952;6.146;2023-03-30T17:25:11;10.82;;;4.03;;
29908;SDS011;36247;51.952;6.146;2023-03-30T17:27:41;13.48;;;3.72;;
29908;SDS011;36247;51.952;6.146;2023-03-30T17:30:15;14.27;;;4.28;;
29908;SDS011;36247;51.952;6.146;2023-03-30T17:32:43;16.02;;;4.10;;
29908;SDS011;36247;51.952;6.146;2023-03-30T17:35:10;16.02;;;5.03;;
29908;SDS011;36247;51.952;6.146;2023-03-30T17:37:37;12.52;;;5.05;;
29908;SDS011;36247;51.952;6.146;2023-03-30T17:40:13;21.23;;;4.57;;
29908;SDS011;36247;51.952;6.146;2023-03-30T17:42:42;19.75;;;4.25;;
29908;SDS011;36247;51.952;6.146;2023-03-30T17:45:11;13.88;;;4.03;;
29908;SDS011;36247;51.952;6.146;2023-03-30T17:47:40;20.10;;;4.97;;
29908;SDS011;36247;51.952;6.146;2023-03-30T17:50:12;19.05;;;4.35;;
29908;SDS011;36247;51.952;6.146;2023-03-30T17:52:46;12.35;;;3.70;;
29908;SDS011;36247;51.952;6.146;2023-03-30T17:55:13;20.38;;;4.65;;
29908;SDS011;36247;51.952;6.146;2023-03-30T17:57:40;16.67;;;4.20;;
29908;SDS011;36247;51.952;6.146;2023-03-30T18:00:11;15.55;;;3.95;;
29908;SDS011;36247;51.952;6.146;2023-03-30T18:02:44;13.40;;;4.82;;
29908;SDS011;36247;51.952;6.146;2023-03-30T18:05:10;17.90;;;4.43;;
29908;SDS011;36247;51.952;6.146;2023-03-30T18:07:37;13.93;;;3.88;;
29908;SDS011;36247;51.952;6.146;2023-03-30T18:10:38;14.13;;;3.47;;
29908;SDS011;36247;51.952;6.146;2023-03-30T18:12:56;19.08;;;4.40;;
29908;SDS011;36247;51.952;6.146;2023-03-30T18:15:23;15.75;;;4.00;;
29908;SDS011;36247;51.952;6.146;2023-03-30T18:17:53;13.98;;;4.47;;
29908;SDS011;36247;51.952;6.146;2023-03-30T18:25:29;17.42;;;4.60;;
29908;SDS011;36247;51.952;6.146;2023-03-30T18:27:56;12.68;;;4.07;;
29908;SDS011;36247;51.952;6.146;2023-03-30T18:30:25;17.48;;;4.07;;
29908;SDS011;36247;51.952;6.146;2023-03-30T18:32:53;13.27;;;3.85;;
29908;SDS011;36247;51.952;6.146;2023-03-30T18:35:20;22.92;;;4.18;;
29908;SDS011;36247;51.952;6.146;2023-03-30T18:37:52;11.15;;;3.83;;
29908;SDS011;36247;51.952;6.146;2023-03-30T18:40:26;19.63;;;4.20;;
29908;SDS011;36247;51.952;6.146;2023-03-30T18:42:55;19.58;;;3.75;;
29908;SDS011;36247;51.952;6.146;2023-03-30T18:45:24;16.58;;;3.45;;
29908;SDS011;36247;51.952;6.146;2023-03-30T18:47:55;18.85;;;3.75;;
29908;SDS011;36247;51.952;6.146;2023-03-30T18:53:00;17.77;;;3.78;;
29908;SDS011;36247;51.952;6.146;2023-03-30T18:55:31;17.63;;;4.07;;
29908;SDS011;36247;51.952;6.146;2023-03-30T18:57:59;17.60;;;4.60;;
29908;SDS011;36247;51.952;6.146;2023-03-30T19:00:27;21.83;;;4.60;;
29908;SDS011;36247;51.952;6.146;2023-03-30T19:02:55;19.88;;;4.07;;
29908;SDS011;36247;51.952;6.146;2023-03-30T19:05:22;14.68;;;3.90;;
29908;SDS011;36247;51.952;6.146;2023-03-30T19:07:51;11.25;;;3.17;;
29908;SDS011;36247;51.952;6.146;2023-03-30T19:10:19;15.40;;;3.85;;
29908;SDS011;36247;51.952;6.146;2023-03-30T19:12:47;14.77;;;3.45;;
29908;SDS011;36247;51.952;6.146;2023-03-30T19:15:24;15.88;;;4.05;;
29908;SDS011;36247;51.952;6.146;2023-03-30T19:17:59;12.18;;;4.25;;
29908;SDS011;36247;51.952;6.146;2023-03-30T19:20:25;10.52;;;3.75;;
29908;SDS011;36247;51.952;6.146;2023-03-30T19:22:53;11.90;;;4.03;;
29908;SDS011;36247;51.952;6.146;2023-03-30T19:25:20;19.23;;;4.35;;
29908;SDS011;36247;51.952;6.146;2023-03-30T19:27:48;15.80;;;4.50;;
29908;SDS011;36247;51.952;6.146;2023-03-30T19:30:18;17.48;;;4.40;;
29908;SDS011;36247;51.952;6.146;2023-03-30T19:32:47;16.38;;;4.75;;
29908;SDS011;36247;51.952;6.146;2023-03-30T19:35:14;14.30;;;5.20;;
29908;SDS011;36247;51.952;6.146;2023-03-30T19:37:41;10.90;;;4.72;;
29908;SDS011;36247;51.952;6.146;2023-03-30T19:40:08;20.52;;;4.05;;
29908;SDS011;36247;51.952;6.146;2023-03-30T19:42:37;16.45;;;4.50;;
29908;SDS011;36247;51.952;6.146;2023-03-30T19:45:03;9.82;;;3.30;;
29908;SDS011;36247;51.952;6.146;2023-03-30T19:47:30;13.35;;;4.45;;
29908;SDS011;36247;51.952;6.146;2023-03-30T19:49:58;13.02;;;3.90;;
29908;SDS011;36247;51.952;6.146;2023-03-30T19:52:29;12.63;;;4.47;;
29908;SDS011;36247;51.952;6.146;2023-03-30T19:54:55;16.05;;;4.50;;
29908;SDS011;36247;51.952;6.146;2023-03-30T19:57:21;15.85;;;5.10;;
29908;SDS011;36247;51.952;6.146;2023-03-30T19:59:47;11.75;;;4.85;;
29908;SDS011;36247;51.952;6.146;2023-03-30T20:02:14;11.15;;;4.43;;
29908;SDS011;36247;51.952;6.146;2023-03-30T20:04:42;16.33;;;4.60;;
29908;SDS011;36247;51.952;6.146;2023-03-30T20:07:09;12.38;;;4.95;;
29908;SDS011;36247;51.952;6.146;2023-03-30T20:09:38;12.50;;;5.72;;
29908;SDS011;36247;51.952;6.146;2023-03-30T20:12:06;14.25;;;4.50;;
29908;SDS011;36247;51.952;6.146;2023-03-30T20:14:32;15.55;;;4.72;;
29908;SDS011;36247;51.952;6.146;2023-03-30T20:16:58;14.38;;;4.40;;
29908;SDS011;36247;51.952;6.146;2023-03-30T20:19:25;12.40;;;3.75;;
29908;SDS011;36247;51.952;6.146;2023-03-30T20:21:53;10.75;;;3.95;;
29908;SDS011;36247;51.952;6.146;2023-03-30T20:24:21;9.25;;;4.15;;
29908;SDS011;36247;51.952;6.146;2023-03-30T20:26:47;14.32;;;3.72;;
29908;SDS011;36247;51.952;6.146;2023-03-30T20:29:19;11.38;;;4.13;;
29908;SDS011;36247;51.952;6.146;2023-03-30T20:31:47;11.43;;;4.32;;
29908;SDS011;36247;51.952;6.146;2023-03-30T20:34:14;6.72;;;3.55;;
29908;SDS011;36247;51.952;6.146;2023-03-30T20:36:41;16.98;;;4.35;;
29908;SDS011;36247;51.952;6.146;2023-03-30T20:39:11;12.77;;;4.30;;
29908;SDS011;36247;51.952;6.146;2023-03-30T20:41:38;14.35;;;4.15;;
29908;SDS011;36247;51.952;6.146;2023-03-30T20:44:04;16.05;;;5.05;;
29908;SDS011;36247;51.952;6.146;2023-03-30T20:46:38;19.60;;;5.35;;
29908;SDS011;36247;51.952;6.146;2023-03-30T20:49:04;9.02;;;4.05;;
29908;SDS011;36247;51.952;6.146;2023-03-30T20:51:32;12.75;;;4.50;;
29908;SDS011;36247;51.952;6.146;2023-03-30T20:53:59;17.77;;;4.65;;
29908;SDS011;36247;51.952;6.146;2023-03-30T20:56:25;14.45;;;5.45;;
29908;SDS011;36247;51.952;6.146;2023-03-30T20:58:52;12.77;;;5.70;;
29908;SDS011;36247;51.952;6.146;2023-03-30T21:01:22;13.75;;;7.07;;
29908;SDS011;36247;51.952;6.146;2023-03-30T21:03:57;21.25;;;9.20;;
29908;SDS011;36247;51.952;6.146;2023-03-30T21:06:25;21.33;;;10.57;;
29908;SDS011;36247;51.952;6.146;2023-03-30T21:08:53;18.73;;;9.48;;
29908;SDS011;36247;51.952;6.146;2023-03-30T21:11:22;22.83;;;9.80;;
29908;SDS011;36247;51.952;6.146;2023-03-30T21:13:53;18.77;;;8.00;;
29908;SDS011;36247;51.952;6.146;2023-03-30T21:16:20;12.27;;;6.38;;
29908;SDS011;36247;51.952;6.146;2023-03-30T21:18:48;13.60;;;6.43;;
29908;SDS011;36247;51.952;6.146;2023-03-30T21:21:14;16.27;;;6.07;;
29908;SDS011;36247;51.952;6.146;2023-03-30T21:23:42;16.88;;;6.13;;
29908;SDS011;36247;51.952;6.146;2023-03-30T21:26:11;13.38;;;6.00;;
29908;SDS011;36247;51.952;6.146;2023-03-30T21:28:37;15.50;;;6.80;;
29908;SDS011;36247;51.952;6.146;2023-03-30T21:31:05;18.90;;;7.32;;
29908;SDS011;36247;51.952;6.146;2023-03-30T21:33:38;16.02;;;4.85;;
29908;SDS011;36247;51.952;6.146;2023-03-30T21:36:04;15.43;;;4.68;;
29908;SDS011;36247;51.952;6.146;2023-03-30T21:38:30;17.52;;;5.15;;
29908;SDS011;36247;51.952;6.146;2023-03-30T21:43:23;12.18;;;4.28;;
29908;SDS011;36247;51.952;6.146;2023-03-30T21:45:52;18.40;;;4.90;;
29908;SDS011;36247;51.952;6.146;2023-03-30T21:48:23;12.15;;;3.97;;
29908;SDS011;36247;51.952;6.146;2023-03-30T21:51:01;15.77;;;4.30;;
29908;SDS011;36247;51.952;6.146;2023-03-30T21:53:31;10.85;;;4.18;;
29908;SDS011;36247;51.952;6.146;2023-03-30T21:55:57;14.60;;;4.63;;
29908;SDS011;36247;51.952;6.146;2023-03-30T21:58:23;10.88;;;5.18;;
29908;SDS011;36247;51.952;6.146;2023-03-30T22:00:51;10.50;;;3.72;;
29908;SDS011;36247;51.952;6.146;2023-03-30T22:03:19;12.95;;;4.85;;
29908;SDS011;36247;51.952;6.146;2023-03-30T22:05:45;8.60;;;3.80;;
29908;SDS011;36247;51.952;6.146;2023-03-30T22:08:13;17.15;;;4.60;;
29908;SDS011;36247;51.952;6.146;2023-03-30T22:10:41;12.32;;;4.25;;
29908;SDS011;36247;51.952;6.146;2023-03-30T22:13:08;10.32;;;3.30;;
29908;SDS011;36247;51.952;6.146;2023-03-30T22:15:36;8.13;;;3.85;;
29908;SDS011;36247;51.952;6.146;2023-03-30T22:18:03;14.02;;;4.25;;
29908;SDS011;36247;51.952;6.146;2023-03-30T22:20:30;9.95;;;4.80;;
29908;SDS011;36247;51.952;6.146;2023-03-30T22:22:56;10.15;;;4.50;;
29908;SDS011;36247;51.952;6.146;2023-03-30T22:25:23;13.38;;;4.10;;
29908;SDS011;36247;51.952;6.146;2023-03-30T22:27:50;13.30;;;4.95;;
29908;SDS011;36247;51.952;6.146;2023-03-30T22:30:21;19.02;;;5.30;;
29908;SDS011;36247;51.952;6.146;2023-03-30T22:32:47;19.13;;;5.80;;
29908;SDS011;36247;51.952;6.146;2023-03-30T22:35:12;15.98;;;5.68;;
29908;SDS011;36247;51.952;6.146;2023-03-30T22:37:38;15.15;;;5.43;;
29908;SDS011;36247;51.952;6.146;2023-03-30T22:40:03;13.27;;;5.57;;
29908;SDS011;36247;51.952;6.146;2023-03-30T22:42:31;15.10;;;5.60;;
29908;SDS011;36247;51.952;6.146;2023-03-30T22:44:57;15.82;;;6.25;;
29908;SDS011;36247;51.952;6.146;2023-03-30T22:47:22;15.70;;;6.32;;
29908;SDS011;36247;51.952;6.146;2023-03-30T22:49:47;13.20;;;5.95;;
29908;SDS011;36247;51.952;6.146;2023-03-30T22:52:14;17.67;;;6.30;;
29908;SDS011;36247;51.952;6.146;2023-03-30T22:54:40;16.13;;;6.03;;
29908;SDS011;36247;51.952;6.146;2023-03-30T22:57:06;16.15;;;6.55;;
29908;SDS011;36247;51.952;6.146;2023-03-30T22:59:32;11.82;;;5.47;;
29908;SDS011;36247;51.952;6.146;2023-03-30T23:01:57;10.55;;;5.15;;
29908;SDS011;36247;51.952;6.146;2023-03-30T23:04:23;19.65;;;6.20;;
29908;SDS011;36247;51.952;6.146;2023-03-30T23:06:49;17.90;;;6.43;;
29908;SDS011;36247;51.952;6.146;2023-03-30T23:09:15;16.27;;;5.90;;
29908;SDS011;36247;51.952;6.146;2023-03-30T23:11:40;18.67;;;6.15;;
29908;SDS011;36247;51.952;6.146;2023-03-30T23:14:11;17.70;;;5.55;;
29908;SDS011;36247;51.952;6.146;2023-03-30T23:16:37;20.13;;;6.28;;
29908;SDS011;36247;51.952;6.146;2023-03-30T23:19:03;19.02;;;6.80;;
29908;SDS011;36247;51.952;6.146;2023-03-30T23:21:32;18.15;;;8.15;;
29908;SDS011;36247;51.952;6.146;2023-03-30T23:24:05;22.40;;;6.53;;
29908;SDS011;36247;51.952;6.146;2023-03-30T23:26:36;13.00;;;4.72;;
29908;SDS011;36247;51.952;6.146;2023-03-30T23:29:02;14.23;;;4.85;;
29908;SDS011;36247;51.952;6.146;2023-03-30T23:31:28;8.63;;;4.00;;
29908;SDS011;36247;51.952;6.146;2023-03-30T23:33:54;16.30;;;4.00;;
29908;SDS011;36247;51.952;6.146;2023-03-30T23:36:23;14.02;;;4.38;;
29908;SDS011;36247;51.952;6.146;2023-03-30T23:38:51;16.33;;;4.30;;
29908;SDS011;36247;51.952;6.146;2023-03-30T23:41:18;11.63;;;3.97;;
29908;SDS011;36247;51.952;6.146;2023-03-30T23:43:47;14.73;;;4.35;;
29908;SDS011;36247;51.952;6.146;2023-03-30T23:46:13;14.82;;;4.13;;
29908;SDS011;36247;51.952;6.146;2023-03-30T23:48:40;11.57;;;4.88;;
29908;SDS011;36247;51.952;6.146;2023-03-30T23:51:07;10.90;;;4.78;;
29908;SDS011;36247;51.952;6.146;2023-03-30T23:53:33;21.23;;;5.97;;
29908;SDS011;36247;51.952;6.146;2023-03-30T23:55:59;15.02;;;5.53;;
29908;SDS011;36247;51.952;6.146;2023-03-30T23:58:29;13.05;;;4.03;;
